createdAt,value
2022-12-15T00:02:19.713Z,50.45
2022-12-15T00:05:24.652Z,46.28
2022-12-15T00:08:30.288Z,42.72
2022-12-15T00:11:35.309Z,51.03
2022-12-15T00:14:39.990Z,47.33
2022-12-15T00:17:45.020Z,44.58
2022-12-15T00:20:50.169Z,44.72
2022-12-15T00:23:55.813Z,46.28
2022-12-15T00:27:00.853Z,48.90
2022-12-15T00:30:06.254Z,48.08
2022-12-15T00:33:11.101Z,46.40
2022-12-15T00:36:18.231Z,47.17
2022-12-15T00:39:04.716Z,50.75
2022-12-15T00:41:50.848Z,47.63
2022-12-15T00:44:37.877Z,48.60
2022-12-15T00:47:24.267Z,48.75
2022-12-15T00:50:29.438Z,47.40
2022-12-15T00:53:34.465Z,48.95
2022-12-15T00:56:39.454Z,46.72
2022-12-15T00:59:44.387Z,46.97
2022-12-15T01:02:49.925Z,43.25
2022-12-15T01:05:55.289Z,46.40
2022-12-15T01:09:00.548Z,44.10
2022-12-15T01:12:05.948Z,47.25
2022-12-15T01:15:11.323Z,47.92
2022-12-15T01:18:17.206Z,44.50
2022-12-15T01:21:05.632Z,44.63
2022-12-15T01:23:52.205Z,49.45
2022-12-15T01:26:39.561Z,50.88
2022-12-15T01:29:25.949Z,41.90
2022-12-15T01:32:13.066Z,48.85
2022-12-15T01:34:59.517Z,48.03
2022-12-15T01:37:46.133Z,42.75
2022-12-15T01:40:46.462Z,46.55
2022-12-15T01:43:36.345Z,46.80
2022-12-15T01:46:24.085Z,47.40
2022-12-15T01:49:13.196Z,48.40
2022-12-15T01:52:06.025Z,53.75
2022-12-15T01:54:58.740Z,50.83
2022-12-15T01:57:46.420Z,50.80
2022-12-15T02:00:32.762Z,48.40
2022-12-15T02:03:19.614Z,48.08
2022-12-15T02:06:07.038Z,43.40
2022-12-15T02:08:54.123Z,55.35
2022-12-15T02:11:59.553Z,49.15
2022-12-15T02:14:48.192Z,47.38
2022-12-15T02:17:44.009Z,49.95
2022-12-15T02:20:39.296Z,49.65
2022-12-15T02:23:45.708Z,46.47
2022-12-15T02:26:43.746Z,55.88
2022-12-15T02:29:29.895Z,50.00
2022-12-15T02:32:27.554Z,53.90
2022-12-15T02:35:18.384Z,49.63
2022-12-15T02:38:05.291Z,51.60
2022-12-15T02:40:58.046Z,55.10
2022-12-15T02:43:45.429Z,52.42
2022-12-15T02:46:55.905Z,51.65
2022-12-15T02:49:51.455Z,53.58
2022-12-15T02:52:42.671Z,51.45
2022-12-15T02:55:31.844Z,56.08
2022-12-15T02:58:36.722Z,56.40
2022-12-15T03:01:35.651Z,53.35
2022-12-15T03:04:22.873Z,56.70
2022-12-15T03:07:10.567Z,56.13
2022-12-15T03:09:57.180Z,57.05
2022-12-15T03:12:43.483Z,56.03
2022-12-15T03:15:35.087Z,55.88
2022-12-15T03:18:21.951Z,54.50
2022-12-15T03:21:10.306Z,48.80
2022-12-15T03:23:56.744Z,53.95
2022-12-15T03:26:43.967Z,50.70
2022-12-15T03:29:30.663Z,53.75
2022-12-15T03:32:17.672Z,49.63
2022-12-15T03:35:04.208Z,52.85
2022-12-15T03:37:50.758Z,52.65
2022-12-15T03:40:37.016Z,55.35
2022-12-15T03:43:24.036Z,56.85
2022-12-15T03:46:10.460Z,55.78
2022-12-15T03:48:57.718Z,52.55
2022-12-15T03:51:45.116Z,53.97
2022-12-15T03:54:31.792Z,51.80
2022-12-15T03:57:18.849Z,46.10
2022-12-15T04:00:06.501Z,52.33
2022-12-15T04:02:59.493Z,48.53
2022-12-15T04:05:46.467Z,50.88
2022-12-15T04:08:32.970Z,54.00
2022-12-15T04:11:20.085Z,46.55
2022-12-15T04:14:06.288Z,48.63
2022-12-15T04:16:53.159Z,52.33
2022-12-15T04:19:58.006Z,53.15
2022-12-15T04:22:46.087Z,47.90
2022-12-15T04:25:50.936Z,49.47
2022-12-15T04:28:55.764Z,52.70
2022-12-15T04:32:02.230Z,46.60
2022-12-15T04:35:07.238Z,52.88
2022-12-15T04:38:12.247Z,45.55
2022-12-15T04:41:17.071Z,44.78
2022-12-15T04:44:22.276Z,53.63
2022-12-15T04:47:27.426Z,48.20
2022-12-15T04:50:32.561Z,48.22
2022-12-15T04:53:37.937Z,49.95
2022-12-15T04:56:42.905Z,49.78
2022-12-15T04:59:47.778Z,52.17
2022-12-15T05:02:52.677Z,52.25
2022-12-15T05:05:57.565Z,51.47
2022-12-15T05:09:02.326Z,53.45
2022-12-15T05:12:09.177Z,48.60
2022-12-15T05:15:16.914Z,50.28
2022-12-15T05:18:22.035Z,50.95
2022-12-15T05:21:26.914Z,48.70
2022-12-15T05:24:31.805Z,52.42
2022-12-15T05:27:36.608Z,53.45
2022-12-15T05:30:41.757Z,48.58
2022-12-15T05:33:28.691Z,50.33
2022-12-15T05:36:14.920Z,47.65
2022-12-15T05:39:01.179Z,49.05
2022-12-15T05:41:47.515Z,46.78
2022-12-15T05:44:34.798Z,51.17
2022-12-15T05:47:21.615Z,51.78
2022-12-15T05:50:08.523Z,51.78
2022-12-15T05:52:55.808Z,47.60
2022-12-15T05:55:41.829Z,46.22
2022-12-15T05:58:28.153Z,45.53
2022-12-15T06:01:15.722Z,50.33
2022-12-15T06:04:02.024Z,52.05
2022-12-15T06:06:48.413Z,52.17
2022-12-15T06:09:35.217Z,53.20
2022-12-15T06:12:21.941Z,51.55
2022-12-15T06:15:08.210Z,51.17
2022-12-15T06:17:55.964Z,55.35
2022-12-15T06:20:42.473Z,47.92
2022-12-15T06:23:29.656Z,51.17
2022-12-15T06:26:16.675Z,47.40
2022-12-15T06:29:05.816Z,48.58
2022-12-15T06:31:55.540Z,51.25
2022-12-15T06:34:42.713Z,48.28
2022-12-15T06:37:31.189Z,52.13
2022-12-15T06:40:18.371Z,50.97
2022-12-15T06:43:05.446Z,54.85
2022-12-15T06:45:51.765Z,47.97
2022-12-15T06:48:38.159Z,53.92
2022-12-15T06:51:24.858Z,52.40
2022-12-15T06:54:11.944Z,54.15
2022-12-15T06:56:58.009Z,56.17
2022-12-15T06:59:44.315Z,52.55
2022-12-15T07:02:33.089Z,54.85
2022-12-15T07:05:19.611Z,55.05
2022-12-15T07:08:05.768Z,56.20
2022-12-15T07:10:53.913Z,56.10
2022-12-15T07:13:40.570Z,57.40
2022-12-15T07:16:27.468Z,58.22
2022-12-15T07:19:14.698Z,56.67
2022-12-15T07:22:12.383Z,55.22
2022-12-15T07:25:10.801Z,55.40
2022-12-15T07:27:57.500Z,55.22
2022-12-15T07:30:43.810Z,53.78
2022-12-15T07:33:31.187Z,56.53
2022-12-15T07:36:18.467Z,54.47
2022-12-15T07:39:07.106Z,53.25
2022-12-15T07:41:54.571Z,51.80
2022-12-15T07:44:41.940Z,53.00
2022-12-15T07:47:28.847Z,55.30
2022-12-15T07:50:15.683Z,54.13
2022-12-15T07:53:02.705Z,51.40
2022-12-15T07:56:07.341Z,57.28
2022-12-15T07:58:55.084Z,55.30
2022-12-15T08:01:42.368Z,50.05
2022-12-15T08:04:29.305Z,50.28
2022-12-15T08:07:16.348Z,51.90
2022-12-15T08:10:03.181Z,49.28
2022-12-15T08:12:50.396Z,48.38
2022-12-15T08:15:38.202Z,48.40
2022-12-15T08:18:25.181Z,45.67
2022-12-15T08:21:12.665Z,46.15
2022-12-15T08:24:03.262Z,49.92
2022-12-15T08:26:51.147Z,48.55
2022-12-15T08:29:53.309Z,48.20
2022-12-15T08:32:39.765Z,48.80
2022-12-15T08:35:55.236Z,53.78
2022-12-15T08:38:33.147Z,50.40
2022-12-15T08:41:23.183Z,48.15
2022-12-15T08:44:09.559Z,46.85
2022-12-15T08:46:57.134Z,43.22
2022-12-15T08:49:44.270Z,44.30
2022-12-15T08:52:31.370Z,45.83
2022-12-15T08:55:22.367Z,48.47
2022-12-15T08:58:09.389Z,47.13
2022-12-15T09:01:01.187Z,46.15
2022-12-15T09:03:47.834Z,45.03
2022-12-15T09:06:35.783Z,47.88
2022-12-15T09:09:23.389Z,42.30
2022-12-15T09:12:12.989Z,43.20
2022-12-15T09:14:59.910Z,42.58
2022-12-15T09:17:47.328Z,43.95
2022-12-15T09:20:36.510Z,40.60
2022-12-15T09:23:23.608Z,35.33
2022-12-15T09:26:18.666Z,40.30
2022-12-15T09:29:06.120Z,46.10
2022-12-15T09:31:52.748Z,41.05
2022-12-15T09:34:39.808Z,36.13
2022-12-15T09:37:27.072Z,37.83
2022-12-15T09:40:15.077Z,37.42
2022-12-15T09:43:32.738Z,38.85
2022-12-15T09:46:16.572Z,39.08
2022-12-15T09:49:08.086Z,39.70
2022-12-15T09:51:59.360Z,36.03
2022-12-15T09:54:47.084Z,42.70
2022-12-15T09:58:11.251Z,38.28
2022-12-15T10:00:59.526Z,38.15
2022-12-15T10:03:52.053Z,41.72
2022-12-15T10:06:44.576Z,31.92
2022-12-15T10:09:38.181Z,43.60
2022-12-15T10:12:28.349Z,42.35
2022-12-15T10:15:21.790Z,44.03
2022-12-15T10:18:14.637Z,41.33
2022-12-15T10:21:02.196Z,40.20
2022-12-15T10:23:50.434Z,44.50
2022-12-15T10:26:36.892Z,45.47
2022-12-15T10:29:30.243Z,42.40
2022-12-15T10:32:17.378Z,42.70
2022-12-15T10:35:08.711Z,40.10
2022-12-15T10:38:00.094Z,43.75
2022-12-15T10:40:50.233Z,39.03
2022-12-15T10:43:38.280Z,41.17
2022-12-15T10:46:29.207Z,38.00
2022-12-15T10:49:15.734Z,38.10
2022-12-15T10:52:02.882Z,38.13
2022-12-15T10:54:50.055Z,39.22
2022-12-15T10:57:36.469Z,38.28
2022-12-15T11:00:28.881Z,39.08
2022-12-15T11:03:24.285Z,38.67
2022-12-15T11:06:16.336Z,45.30
2022-12-15T11:09:21.866Z,37.53
2022-12-15T11:12:50.504Z,38.60
2022-12-15T11:15:42.961Z,45.28
2022-12-15T11:18:45.294Z,41.13
2022-12-15T11:21:34.158Z,31.33
2022-12-15T11:24:46.836Z,39.30
2022-12-15T11:27:37.093Z,39.35
2022-12-15T11:30:26.618Z,41.05
2022-12-15T11:33:13.646Z,42.75
2022-12-15T11:36:14.134Z,42.60
2022-12-15T11:39:03.887Z,39.22
2022-12-15T11:42:08.955Z,39.67
2022-12-15T11:45:03.734Z,39.17
2022-12-15T11:48:09.076Z,41.03
2022-12-15T11:51:12.306Z,40.30
2022-12-15T11:54:08.847Z,38.42
2022-12-15T11:57:10.691Z,38.97
2022-12-15T12:00:06.024Z,43.40
2022-12-15T12:02:59.352Z,36.78
2022-12-15T12:05:58.411Z,42.85
2022-12-15T12:08:58.789Z,43.10
2022-12-15T12:11:51.883Z,40.58
2022-12-15T12:14:42.007Z,41.55
2022-12-15T12:17:47.644Z,38.67
2022-12-15T12:20:50.434Z,39.90
2022-12-15T12:23:46.094Z,44.70
2022-12-15T12:26:41.621Z,41.17
2022-12-15T12:29:34.174Z,38.97
2022-12-15T12:32:40.568Z,42.22
2022-12-15T12:35:43.134Z,43.90
2022-12-15T12:38:50.773Z,43.72
2022-12-15T12:41:50.974Z,39.97
2022-12-15T12:44:40.586Z,41.75
2022-12-15T12:47:38.108Z,45.85
2022-12-15T12:50:26.838Z,42.25
2022-12-15T12:53:35.305Z,47.00
2022-12-15T12:56:37.809Z,45.25
2022-12-15T12:59:31.167Z,40.22
2022-12-15T13:02:27.674Z,40.20
2022-12-15T13:05:30.117Z,42.67
2022-12-15T13:08:17.322Z,46.05
2022-12-15T13:11:25.305Z,42.63
2022-12-15T13:14:21.038Z,38.13
2022-12-15T13:17:29.215Z,40.80
2022-12-15T13:20:21.710Z,44.55
2022-12-15T13:23:20.942Z,42.40
2022-12-15T13:26:08.532Z,40.20
2022-12-15T13:28:57.967Z,42.65
2022-12-15T13:31:49.157Z,42.97
2022-12-15T13:34:39.711Z,42.90
2022-12-15T13:37:51.084Z,50.55
2022-12-15T13:40:38.770Z,44.95
2022-12-15T13:43:29.444Z,43.88
2022-12-15T13:46:18.286Z,45.53
2022-12-15T13:49:08.211Z,44.88
2022-12-15T13:52:00.492Z,46.33
2022-12-15T13:54:52.271Z,44.38
2022-12-15T13:57:46.518Z,49.00
2022-12-15T14:00:33.943Z,46.45
2022-12-15T14:03:20.303Z,41.70
2022-12-15T14:06:13.615Z,44.83
2022-12-15T14:09:00.608Z,41.90
2022-12-15T14:11:55.011Z,45.05
2022-12-15T14:14:45.547Z,46.88
2022-12-15T14:17:52.161Z,45.67
2022-12-15T14:20:44.713Z,46.53
2022-12-15T14:23:52.465Z,45.60
2022-12-15T14:26:52.665Z,51.17
2022-12-15T14:29:40.798Z,48.03
2022-12-15T14:32:28.589Z,49.95
2022-12-15T14:35:20.456Z,54.42
2022-12-15T14:38:08.925Z,49.05
2022-12-15T14:42:10.695Z,52.80
2022-12-15T14:45:01.207Z,55.67
2022-12-15T14:48:13.684Z,59.97
2022-12-15T14:51:01.905Z,42.05
2022-12-15T14:53:53.471Z,58.72
2022-12-15T14:56:40.562Z,53.08
2022-12-15T14:59:32.362Z,50.55
2022-12-15T15:02:25.238Z,45.50
2022-12-15T15:05:28.251Z,49.25
2022-12-15T15:11:20.588Z,51.03
2022-12-15T15:14:18.886Z,53.97
2022-12-15T15:17:06.088Z,53.15
2022-12-15T15:19:58.059Z,54.55
2022-12-15T15:22:46.679Z,50.70
2022-12-15T15:25:43.231Z,52.50
2022-12-15T15:28:36.759Z,51.92
2022-12-15T15:31:26.145Z,50.25
2022-12-15T15:34:12.667Z,55.83
2022-12-15T15:37:06.429Z,53.65
2022-12-15T15:39:55.633Z,56.47
2022-12-15T15:42:43.360Z,52.33
2022-12-15T15:45:32.022Z,51.70
2022-12-15T15:48:27.558Z,53.60
2022-12-15T15:51:14.933Z,52.90
2022-12-15T15:54:03.709Z,51.85
2022-12-15T15:56:49.981Z,50.50
2022-12-15T15:59:37.810Z,55.25
2022-12-15T16:02:24.414Z,51.45
2022-12-15T16:05:11.170Z,53.13
2022-12-15T16:07:58.786Z,54.60
2022-12-15T16:10:47.463Z,53.95
2022-12-15T16:13:34.024Z,49.05
2022-12-15T16:16:22.034Z,57.35
2022-12-15T16:19:08.575Z,52.38
2022-12-15T16:21:55.348Z,59.25
2022-12-15T16:24:41.553Z,58.85
2022-12-15T16:27:28.367Z,56.72
2022-12-15T16:30:16.605Z,55.85
2022-12-15T16:33:03.289Z,55.20
2022-12-15T16:35:50.522Z,53.35
2022-12-15T16:38:38.254Z,55.10
2022-12-15T16:41:27.789Z,54.92
2022-12-15T16:44:14.386Z,53.55
2022-12-15T16:47:00.977Z,66.15
2022-12-15T16:49:47.393Z,55.53
2022-12-15T16:52:34.997Z,57.45
2022-12-15T16:55:28.650Z,57.42
2022-12-15T16:58:16.121Z,63.80
2022-12-15T17:01:05.009Z,61.65
2022-12-15T17:03:52.265Z,55.45
2022-12-15T17:06:59.063Z,56.78
2022-12-15T17:09:45.608Z,56.42
2022-12-15T17:12:31.805Z,60.08
2022-12-15T17:15:28.365Z,59.78
2022-12-15T17:18:15.333Z,62.05
2022-12-15T17:21:06.611Z,57.67
2022-12-15T17:23:55.429Z,63.70
2022-12-15T17:26:43.058Z,65.50
2022-12-15T17:29:31.041Z,61.35
2022-12-15T17:32:17.897Z,65.88
2022-12-15T17:35:11.455Z,59.28
2022-12-15T17:37:57.613Z,58.60
2022-12-15T17:40:44.056Z,70.13
2022-12-15T17:43:35.726Z,67.65
2022-12-15T17:46:23.899Z,66.72
2022-12-15T17:49:10.231Z,66.05
2022-12-15T17:51:57.289Z,67.28
2022-12-15T17:54:45.942Z,67.38
2022-12-15T17:57:40.713Z,67.22
2022-12-15T18:00:32.384Z,64.97
2022-12-15T18:03:18.765Z,65.15
2022-12-15T18:06:09.737Z,72.35
2022-12-15T18:08:58.431Z,67.18
2022-12-15T18:11:49.449Z,63.60
2022-12-15T18:14:38.578Z,61.10
2022-12-15T18:17:31.190Z,68.40
2022-12-15T18:20:26.851Z,64.70
2022-12-15T18:23:22.338Z,65.03
2022-12-15T18:26:09.825Z,65.35
2022-12-15T18:28:56.802Z,69.85
2022-12-15T18:31:45.578Z,66.88
2022-12-15T18:34:31.653Z,68.25
2022-12-15T18:37:20.878Z,70.00
2022-12-15T18:40:10.257Z,67.68
2022-12-15T18:42:58.181Z,66.00
2022-12-15T18:45:55.946Z,72.20
2022-12-15T18:48:43.238Z,71.50
2022-12-15T18:51:33.223Z,65.28
2022-12-15T18:54:24.393Z,67.85
2022-12-15T18:57:28.558Z,69.60
2022-12-15T19:00:15.248Z,66.80
2022-12-15T19:03:02.804Z,67.78
2022-12-15T19:05:49.782Z,69.88
2022-12-15T19:08:38.154Z,68.57
2022-12-15T19:11:31.250Z,72.45
2022-12-15T19:14:41.815Z,65.78
2022-12-15T19:17:48.598Z,69.50
2022-12-15T19:20:53.835Z,68.75
2022-12-15T19:23:40.359Z,70.53
2022-12-15T19:26:27.140Z,63.03
2022-12-15T19:29:21.537Z,70.40
2022-12-15T19:32:08.616Z,74.32
2022-12-15T19:34:55.565Z,71.65
2022-12-15T19:37:45.020Z,67.03
2022-12-15T19:40:33.640Z,72.13
2022-12-15T19:43:21.198Z,64.55
2022-12-15T19:46:07.521Z,67.20
2022-12-15T19:48:54.579Z,70.20
2022-12-15T19:51:42.716Z,70.15
2022-12-15T19:54:33.013Z,76.55
2022-12-15T19:57:21.989Z,78.18
2022-12-15T20:00:16.668Z,72.90
2022-12-15T20:03:03.587Z,75.32
2022-12-15T20:05:52.449Z,73.95
2022-12-15T20:08:40.015Z,71.95
2022-12-15T20:11:27.661Z,73.60
2022-12-15T20:14:14.933Z,69.32
2022-12-15T20:17:01.581Z,68.25
2022-12-15T20:19:47.713Z,80.40
2022-12-15T20:22:34.656Z,73.38
2022-12-15T20:25:26.554Z,76.30
2022-12-15T20:28:17.788Z,57.70
2022-12-15T20:31:05.311Z,75.95
2022-12-15T20:33:55.625Z,72.57
2022-12-15T20:36:43.249Z,74.50
2022-12-15T20:39:31.293Z,75.38
2022-12-15T20:42:24.336Z,77.35
2022-12-15T20:45:17.884Z,81.25
2022-12-15T20:48:05.146Z,71.65
2022-12-15T20:50:57.320Z,73.55
2022-12-15T20:53:45.277Z,75.22
2022-12-15T20:56:34.147Z,70.43
2022-12-15T20:59:21.136Z,75.38
2022-12-15T21:02:18.993Z,72.30
2022-12-15T21:05:05.812Z,82.57
2022-12-15T21:07:52.686Z,82.03
2022-12-15T21:10:39.634Z,75.03
2022-12-15T21:13:27.516Z,74.78
2022-12-15T21:16:25.354Z,79.93
2022-12-15T21:19:20.350Z,75.88
2022-12-15T21:22:13.218Z,77.70
2022-12-15T21:25:01.878Z,72.15
2022-12-15T21:27:48.295Z,76.68
2022-12-15T21:30:35.873Z,72.53
2022-12-15T21:33:22.333Z,72.05
2022-12-15T21:36:13.579Z,76.50
2022-12-15T21:39:00.239Z,78.93
2022-12-15T21:41:46.351Z,75.32
2022-12-15T21:44:32.696Z,79.78
2022-12-15T21:47:52.272Z,77.82
2022-12-15T21:50:43.438Z,73.53
2022-12-15T21:53:29.739Z,86.35
2022-12-15T21:56:20.087Z,80.22
2022-12-15T21:59:16.668Z,79.93
2022-12-15T22:02:03.438Z,80.45
2022-12-15T22:04:51.907Z,75.75
2022-12-15T22:07:38.215Z,74.72
2022-12-15T22:10:24.975Z,80.45
2022-12-15T22:13:14.307Z,72.88
2022-12-15T22:16:00.934Z,82.32
2022-12-15T22:18:52.110Z,82.32
2022-12-15T22:21:38.373Z,86.85
2022-12-15T22:24:24.762Z,78.70
2022-12-15T22:27:21.217Z,77.07
2022-12-15T22:30:14.616Z,78.88
2022-12-15T22:33:00.857Z,76.95
2022-12-15T22:35:47.641Z,73.57
2022-12-15T22:38:34.496Z,83.80
2022-12-15T22:41:22.145Z,82.47
2022-12-15T22:44:34.646Z,81.13
2022-12-15T22:47:21.750Z,79.43
2022-12-15T22:50:08.304Z,76.95
2022-12-15T22:52:55.111Z,79.43
2022-12-15T22:55:41.963Z,76.53
2022-12-15T22:58:47.324Z,86.72
2022-12-15T23:01:33.687Z,79.00
2022-12-15T23:04:19.842Z,89.68
2022-12-15T23:07:07.742Z,87.38
2022-12-15T23:10:14.184Z,84.18
2022-12-15T23:13:00.703Z,86.57
2022-12-15T23:16:05.608Z,98.45
2022-12-15T23:18:55.812Z,102.50
2022-12-15T23:21:42.186Z,98.82
2022-12-15T23:24:29.560Z,96.57
2022-12-15T23:27:16.243Z,102.75
2022-12-15T23:30:02.822Z,94.75
2022-12-15T23:32:49.201Z,104.50
2022-12-15T23:35:36.005Z,108.95
2022-12-15T23:38:22.644Z,106.38
2022-12-15T23:41:09.328Z,106.68
2022-12-15T23:43:56.130Z,105.82
2022-12-15T23:46:42.696Z,105.03
2022-12-15T23:49:29.071Z,103.55
2022-12-15T23:52:15.365Z,107.60
2022-12-15T23:55:02.310Z,98.47
2022-12-15T23:57:48.796Z,104.22
